Time;durP1;ratioP1;P1;durP2;ratioP2;P2;SDS_P1;SDS_P2;PMS_P1;PMS_P2;Temp;Humidity;BMP_temperature;BMP_pressure;BME280_temperature;BME280_humidity;BME280_pressure;Samples;Min_cycle;Max_cycle;Signal;HPM_P1;HPM_P2
2023/02/03 00:02:04;;;;;;;17.33;9.57;;;9.30;99.90;;;;;;6117068;23;21031;-68
2023/02/03 00:04:30;;;;;;;17.70;8.00;;;9.30;99.90;;;;;;6114160;23;20441;-69
2023/02/03 00:06:57;;;;;;;13.57;7.23;;;9.30;99.90;;;;;;6120679;23;20403;-69
2023/02/03 00:09:25;;;;;;;11.47;7.90;;;9.20;99.90;;;;;;6116081;23;20502;-69
2023/02/03 00:11:52;;;;;;;14.37;7.77;;;9.40;99.90;;;;;;6116952;23;20430;-70
2023/02/03 00:14:19;;;;;;;15.00;9.30;;;9.40;99.90;;;;;;6113789;23;20827;-69
2023/02/03 00:16:47;;;;;;;10.10;6.60;;;9.40;99.90;;;;;;6116697;23;20442;-70
2023/02/03 00:19:14;;;;;;;6.77;4.63;;;9.30;99.90;;;;;;6113870;23;20411;-70
2023/02/03 00:21:41;;;;;;;16.43;8.80;;;9.30;99.90;;;;;;6117100;23;20489;-69
2023/02/03 00:24:08;;;;;;;12.93;7.80;;;9.30;99.90;;;;;;6120264;23;20423;-69
2023/02/03 00:26:40;;;;;;;17.57;7.70;;;9.30;99.90;;;;;;6116880;23;20927;-69
2023/02/03 00:29:08;;;;;;;17.80;9.20;;;9.30;99.90;;;;;;6088881;23;20435;-70
2023/02/03 00:31:35;;;;;;;12.50;7.70;;;9.30;99.90;;;;;;6118150;23;20834;-70
2023/02/03 00:34:03;;;;;;;14.17;8.13;;;9.30;99.90;;;;;;6118523;23;20732;-70
2023/02/03 00:36:30;;;;;;;10.57;7.63;;;9.30;99.90;;;;;;6119050;23;20743;-70
2023/02/03 00:38:57;;;;;;;13.47;9.00;;;9.40;99.90;;;;;;6119766;23;20896;-69
2023/02/03 00:41:29;;;;;;;13.90;9.70;;;9.30;99.90;;;;;;6116113;23;21026;-69
2023/02/03 00:43:56;;;;;;;16.43;9.77;;;9.30;99.90;;;;;;6115888;23;20946;-70
2023/02/03 00:46:23;;;;;;;23.00;10.03;;;9.30;99.90;;;;;;6115702;23;20415;-70
2023/02/03 00:48:50;;;;;;;11.93;8.10;;;9.30;99.90;;;;;;6117991;23;20407;-70
2023/02/03 00:51:18;;;;;;;13.37;8.77;;;9.40;99.90;;;;;;6118167;23;20583;-69
2023/02/03 00:53:45;;;;;;;16.43;8.20;;;9.40;99.90;;;;;;6113132;23;20418;-70
2023/02/03 00:56:12;;;;;;;10.03;7.37;;;9.30;99.90;;;;;;6119959;23;21143;-69
2023/02/03 00:58:39;;;;;;;14.93;7.43;;;9.30;99.90;;;;;;6116691;23;20439;-70
2023/02/03 01:01:07;;;;;;;15.07;8.20;;;9.30;99.90;;;;;;6114850;23;20441;-69
2023/02/03 01:03:34;;;;;;;13.63;7.80;;;9.30;99.90;;;;;;6116473;23;20871;-70
2023/02/03 01:06:10;;;;;;;16.13;6.97;;;9.40;99.90;;;;;;6116335;23;20450;-69
2023/02/03 01:08:38;;;;;;;21.43;6.33;;;9.40;99.90;;;;;;6120144;23;20494;-70
2023/02/03 01:11:09;;;;;;;18.27;8.37;;;9.40;99.90;;;;;;6065028;23;21292;-68
2023/02/03 01:13:37;;;;;;;8.37;6.23;;;9.30;99.90;;;;;;6118279;23;20415;-69
2023/02/03 01:16:07;;;;;;;15.40;9.17;;;9.30;99.90;;;;;;6066672;23;20445;-70
2023/02/03 01:18:34;;;;;;;13.23;7.67;;;9.30;99.90;;;;;;6116934;23;20449;-69
2023/02/03 01:21:06;;;;;;;12.33;7.17;;;9.30;99.90;;;;;;6118458;23;20510;-69
2023/02/03 01:23:33;;;;;;;15.07;9.33;;;9.30;99.90;;;;;;6113604;23;20395;-67
2023/02/03 01:26:04;;;;;;;11.07;7.93;;;9.30;99.90;;;;;;6115832;23;21204;-67
2023/02/03 01:28:31;;;;;;;14.07;8.00;;;9.40;99.90;;;;;;6114525;23;20698;-69
2023/02/03 01:30:58;;;;;;;16.77;8.13;;;9.40;99.90;;;;;;6062558;23;20463;-69
2023/02/03 01:33:25;;;;;;;14.13;7.13;;;9.40;99.90;;;;;;6116017;23;20385;-69
2023/02/03 01:35:52;;;;;;;10.80;5.93;;;9.40;99.90;;;;;;6115338;23;20518;-67
2023/02/03 01:38:19;;;;;;;13.70;5.00;;;9.40;99.90;;;;;;6113249;23;20446;-70
2023/02/03 01:40:45;;;;;;;12.00;6.87;;;9.40;99.90;;;;;;6113706;23;20411;-67
2023/02/03 01:43:30;;;;;;;8.70;5.53;;;9.30;99.90;;;;;;6115729;23;20413;-67
2023/02/03 01:45:58;;;;;;;8.87;6.33;;;9.20;99.90;;;;;;6115250;23;20390;-67
2023/02/03 01:48:25;;;;;;;10.57;8.60;;;9.30;99.90;;;;;;6111843;23;20733;-67
2023/02/03 01:50:52;;;;;;;27.70;8.30;;;9.30;99.90;;;;;;6116946;23;20449;-69
2023/02/03 01:53:19;;;;;;;12.50;8.80;;;9.40;99.90;;;;;;6120686;23;20848;-69
2023/02/03 01:55:49;;;;;;;11.93;9.03;;;9.40;99.90;;;;;;6120216;23;20561;-69
2023/02/03 01:58:23;;;;;;;14.87;6.37;;;9.40;99.90;;;;;;6116390;23;20442;-69
2023/02/03 02:00:53;;;;;;;6.70;5.07;;;9.40;99.90;;;;;;6112283;23;20437;-69
2023/02/03 02:03:22;;;;;;;13.50;7.67;;;9.30;99.90;;;;;;6112256;23;20514;-67
2023/02/03 02:05:53;;;;;;;10.77;7.00;;;9.40;99.90;;;;;;6115904;23;20502;-69
2023/02/03 02:08:21;;;;;;;10.60;7.50;;;9.40;99.90;;;;;;6116278;23;20474;-69
2023/02/03 02:10:49;;;;;;;10.80;5.33;;;9.30;99.90;;;;;;6118139;23;20397;-70
2023/02/03 02:13:17;;;;;;;9.33;6.53;;;9.30;99.90;;;;;;6118378;23;20410;-70
2023/02/03 02:15:51;;;;;;;9.30;7.10;;;9.40;99.90;;;;;;6114838;23;20886;-69
2023/02/03 02:18:42;;;;;;;11.53;6.57;;;9.40;99.90;;;;;;6117051;23;20497;-71
2023/02/03 02:21:44;;;;;;;9.07;6.10;;;9.40;99.90;;;;;;6117671;23;20433;-71
2023/02/03 02:24:40;;;;;;;10.50;6.10;;;9.50;99.90;;;;;;6115178;23;20414;-71
2023/02/03 02:27:16;;;;;;;12.50;5.93;;;9.40;99.90;;;;;;6104836;23;20452;-71
2023/02/03 02:30:11;;;;;;;12.00;5.60;;;9.40;99.90;;;;;;6114340;23;20449;-70
2023/02/03 02:33:06;;;;;;;11.47;6.87;;;9.40;99.90;;;;;;6065859;23;20557;-70
2023/02/03 02:35:45;;;;;;;10.30;5.87;;;9.40;99.90;;;;;;6114089;23;20424;-69
2023/02/03 02:38:20;;;;;;;10.47;7.60;;;9.50;99.90;;;;;;6116895;23;20402;-70
2023/02/03 02:40:54;;;;;;;10.03;6.73;;;9.50;99.90;;;;;;6114002;23;20436;-67
2023/02/03 02:43:25;;;;;;;9.93;6.00;;;9.40;99.90;;;;;;6116983;23;20394;-69
2023/02/03 02:45:56;;;;;;;24.73;7.00;;;9.40;99.90;;;;;;6111781;23;20405;-68
2023/02/03 02:48:29;;;;;;;8.93;3.73;;;9.50;99.90;;;;;;6116721;23;20384;-67
2023/02/03 02:51:00;;;;;;;10.07;5.77;;;9.40;99.90;;;;;;6114611;23;21240;-69
2023/02/03 02:53:32;;;;;;;8.33;4.50;;;9.50;99.90;;;;;;6117493;23;20896;-69
2023/02/03 02:56:03;;;;;;;14.73;4.00;;;9.50;99.90;;;;;;6119857;23;20698;-69
2023/02/03 02:58:33;;;;;;;8.40;6.50;;;9.40;99.90;;;;;;6114211;23;20443;-69
2023/02/03 03:01:02;;;;;;;10.60;5.80;;;9.40;99.90;;;;;;6115423;23;20431;-69
2023/02/03 03:03:30;;;;;;;10.67;6.80;;;9.40;99.90;;;;;;6117767;23;20385;-70
2023/02/03 03:06:01;;;;;;;10.83;7.30;;;9.40;99.90;;;;;;6118915;23;20907;-70
2023/02/03 03:08:31;;;;;;;21.23;7.07;;;9.40;99.90;;;;;;6115095;23;20381;-69
2023/02/03 03:11:00;;;;;;;11.77;6.30;;;9.40;99.90;;;;;;6116539;23;20437;-71
2023/02/03 03:13:32;;;;;;;11.80;6.23;;;9.40;99.90;;;;;;6113103;23;20863;-70
2023/02/03 03:16:01;;;;;;;12.77;7.00;;;9.40;99.90;;;;;;6113578;23;20466;-70
2023/02/03 03:18:33;;;;;;;10.20;5.23;;;9.40;99.90;;;;;;6115494;23;20508;-70
2023/02/03 03:21:05;;;;;;;10.87;6.13;;;9.50;99.90;;;;;;6114061;23;20525;-68
2023/02/03 03:23:35;;;;;;;7.90;6.70;;;9.50;99.90;;;;;;6114223;23;20398;-70
2023/02/03 03:26:09;;;;;;;13.63;6.10;;;9.60;99.90;;;;;;6114931;23;20373;-70
2023/02/03 03:28:43;;;;;;;10.70;5.90;;;9.50;99.90;;;;;;6112801;23;20401;-70
2023/02/03 03:31:11;;;;;;;10.37;4.00;;;9.60;99.90;;;;;;6113008;23;21412;-71
2023/02/03 03:33:39;;;;;;;9.07;5.43;;;9.50;99.90;;;;;;6114386;23;20506;-70
2023/02/03 03:36:15;;;;;;;11.73;5.80;;;9.50;99.90;;;;;;6115576;23;20948;-70
2023/02/03 03:38:49;;;;;;;16.03;5.57;;;9.50;99.90;;;;;;6113369;23;20469;-69
2023/02/03 03:41:26;;;;;;;17.30;5.37;;;9.50;99.90;;;;;;6039409;23;20522;-70
2023/02/03 03:43:55;;;;;;;12.00;5.33;;;9.40;99.90;;;;;;6114595;23;20423;-70
2023/02/03 03:46:28;;;;;;;11.50;5.83;;;9.50;99.90;;;;;;6113906;23;20385;-71
2023/02/03 03:48:59;;;;;;;5.87;4.37;;;9.50;99.90;;;;;;6117326;23;20366;-71
2023/02/03 03:51:31;;;;;;;9.07;5.10;;;9.50;99.90;;;;;;6113244;23;20496;-70
2023/02/03 03:54:01;;;;;;;7.50;4.50;;;9.40;99.90;;;;;;6117243;23;20370;-70
2023/02/03 03:56:33;;;;;;;6.40;4.90;;;9.40;99.90;;;;;;6117506;23;20468;-68
2023/02/03 03:59:03;;;;;;;8.13;4.93;;;9.50;99.90;;;;;;6113066;23;20454;-70
2023/02/03 04:01:32;;;;;;;6.60;4.33;;;9.50;99.90;;;;;;6114611;23;20514;-69
2023/02/03 04:04:05;;;;;;;9.20;4.40;;;9.40;99.90;;;;;;6111121;23;20389;-69
2023/02/03 04:06:32;;;;;;;9.73;6.10;;;9.40;99.90;;;;;;6116117;23;20370;-70
2023/02/03 04:09:01;;;;;;;8.90;4.10;;;9.40;99.90;;;;;;6115096;23;20482;-70
2023/02/03 04:14:12;;;;;;;8.87;3.40;;;9.40;99.90;;;;;;6114321;23;20349;-70
2023/02/03 04:16:39;;;;;;;7.00;4.60;;;9.40;99.90;;;;;;6112278;23;20773;-71
2023/02/03 04:19:07;;;;;;;8.93;3.37;;;9.50;99.90;;;;;;6116264;23;21319;-68
2023/02/03 04:21:34;;;;;;;7.77;3.97;;;9.50;99.90;;;;;;6110761;23;20426;-69
2023/02/03 04:24:01;;;;;;;6.10;3.70;;;9.50;99.90;;;;;;6112105;23;20970;-68
2023/02/03 04:26:28;;;;;;;6.20;2.97;;;9.50;99.90;;;;;;6114343;23;21139;-67
2023/02/03 04:28:55;;;;;;;3.10;2.50;;;9.50;99.90;;;;;;6111365;23;20827;-68
2023/02/03 04:31:22;;;;;;;5.70;3.63;;;9.50;99.90;;;;;;6116003;23;21104;-69
2023/02/03 04:33:49;;;;;;;5.93;3.37;;;9.50;99.90;;;;;;6115209;23;20497;-68
2023/02/03 04:36:17;;;;;;;6.83;4.03;;;9.40;99.90;;;;;;6114304;23;20940;-69
2023/02/03 04:38:44;;;;;;;6.53;4.30;;;9.40;99.90;;;;;;6113771;23;20583;-67
2023/02/03 04:41:12;;;;;;;4.00;3.20;;;9.40;99.90;;;;;;6115487;23;20462;-69
2023/02/03 04:43:38;;;;;;;6.07;4.10;;;9.50;99.90;;;;;;6116483;23;20443;-67
2023/02/03 04:46:05;;;;;;;6.63;3.70;;;9.40;99.90;;;;;;6113009;23;20517;-69
2023/02/03 04:48:32;;;;;;;3.73;2.30;;;9.40;99.90;;;;;;6064943;23;20482;-69
2023/02/03 04:51:03;;;;;;;4.10;2.73;;;9.40;99.90;;;;;;6111871;23;20502;-69
2023/02/03 04:53:32;;;;;;;8.10;3.60;;;9.40;99.90;;;;;;6116969;23;20419;-69
2023/02/03 04:55:59;;;;;;;9.33;3.47;;;9.40;99.90;;;;;;6115034;23;20469;-69
2023/02/03 04:58:26;;;;;;;3.23;2.93;;;9.50;99.90;;;;;;6117815;23;20439;-69
2023/02/03 05:00:54;;;;;;;7.90;5.30;;;9.50;99.90;;;;;;6112207;23;20947;-70
2023/02/03 05:03:21;;;;;;;8.03;4.50;;;9.40;99.90;;;;;;6114245;23;20411;-69
2023/02/03 05:05:49;;;;;;;10.70;4.60;;;9.40;99.90;;;;;;6113455;23;20515;-69
2023/02/03 05:08:16;;;;;;;8.90;4.17;;;9.40;99.90;;;;;;6115212;23;20414;-70
2023/02/03 05:10:45;;;;;;;5.60;4.07;;;9.50;99.90;;;;;;6113296;23;20889;-70
2023/02/03 05:13:12;;;;;;;5.47;2.73;;;9.40;99.90;;;;;;6111161;23;20456;-68
2023/02/03 05:15:39;;;;;;;7.50;3.40;;;9.50;99.90;;;;;;6110950;23;20414;-67
2023/02/03 05:18:06;;;;;;;5.10;3.43;;;9.50;99.90;;;;;;6111597;23;20490;-69
2023/02/03 05:20:33;;;;;;;4.40;3.23;;;9.60;99.90;;;;;;6112233;23;20414;-69
2023/02/03 05:23:03;;;;;;;28.77;5.73;;;9.60;99.90;;;;;;6111232;23;20490;-69
2023/02/03 05:25:32;;;;;;;4.97;3.80;;;9.50;99.90;;;;;;6114618;23;21124;-69
2023/02/03 05:28:01;;;;;;;7.67;2.77;;;9.50;99.90;;;;;;6114688;23;20389;-67
2023/02/03 05:30:28;;;;;;;4.77;3.27;;;9.40;99.90;;;;;;6088267;23;20918;-68
2023/02/03 05:32:55;;;;;;;6.50;3.63;;;9.50;99.90;;;;;;6116783;23;20517;-69
2023/02/03 05:35:22;;;;;;;3.50;2.60;;;9.50;99.90;;;;;;6110817;23;20420;-68
2023/02/03 05:37:49;;;;;;;4.77;3.03;;;9.50;99.90;;;;;;6117462;23;20461;-69
2023/02/03 05:43:02;;;;;;;10.83;3.43;;;9.50;99.90;;;;;;6117348;23;20374;-69
2023/02/03 05:45:29;;;;;;;4.90;3.43;;;9.50;99.90;;;;;;6114319;23;20534;-69
2023/02/03 05:47:56;;;;;;;2.00;1.90;;;9.50;99.90;;;;;;6113827;23;20875;-70
2023/02/03 05:50:23;;;;;;;4.80;2.53;;;9.50;99.90;;;;;;6115411;23;20407;-69
2023/02/03 05:52:50;;;;;;;3.73;2.40;;;9.50;99.90;;;;;;6114708;23;20838;-69
2023/02/03 05:55:17;;;;;;;7.17;3.90;;;9.60;99.90;;;;;;6108804;23;20415;-69
2023/02/03 05:57:47;;;;;;;4.17;2.37;;;9.50;99.90;;;;;;6121339;23;20418;-69
2023/02/03 06:00:16;;;;;;;4.60;2.40;;;9.50;99.90;;;;;;6118084;23;20534;-70
2023/02/03 06:02:43;;;;;;;4.23;2.30;;;9.40;99.90;;;;;;6119942;23;20427;-70
2023/02/03 06:05:10;;;;;;;3.20;2.20;;;9.50;99.90;;;;;;6119717;23;20415;-70
2023/02/03 06:07:37;;;;;;;9.53;2.70;;;9.50;99.90;;;;;;6120364;23;20410;-68
2023/02/03 06:10:04;;;;;;;7.07;2.90;;;9.40;99.90;;;;;;6119580;23;20411;-70
2023/02/03 06:12:31;;;;;;;2.30;2.10;;;9.50;99.90;;;;;;6116973;23;20493;-69
2023/02/03 06:14:58;;;;;;;2.40;1.83;;;9.50;99.90;;;;;;6117405;23;20438;-70
2023/02/03 06:17:26;;;;;;;3.77;2.70;;;9.50;99.90;;;;;;6120865;23;20513;-70
2023/02/03 06:19:53;;;;;;;4.93;2.57;;;9.50;99.90;;;;;;6121703;23;20439;-70
2023/02/03 06:22:20;;;;;;;4.23;2.70;;;9.50;99.90;;;;;;6120254;23;20485;-69
2023/02/03 06:24:47;;;;;;;3.67;3.10;;;9.50;99.90;;;;;;6120039;23;20483;-69
2023/02/03 06:27:14;;;;;;;2.07;1.83;;;9.50;99.90;;;;;;6118844;23;20469;-69
2023/02/03 06:29:41;;;;;;;3.10;2.00;;;9.50;99.90;;;;;;6118079;23;21170;-69
2023/02/03 06:32:09;;;;;;;8.90;2.77;;;9.50;99.90;;;;;;6116657;23;20736;-68
2023/02/03 06:34:37;;;;;;;3.80;2.83;;;9.50;99.90;;;;;;6117592;23;20502;-69
2023/02/03 06:37:04;;;;;;;5.20;2.77;;;9.50;99.90;;;;;;6119563;23;21084;-69
2023/02/03 06:39:31;;;;;;;7.90;1.97;;;9.50;99.90;;;;;;6119592;23;20476;-69
2023/02/03 06:41:58;;;;;;;3.10;1.60;;;9.50;99.90;;;;;;6119836;23;20506;-70
2023/02/03 06:44:26;;;;;;;17.80;2.63;;;9.50;99.90;;;;;;6119652;23;20422;-70
2023/02/03 06:46:52;;;;;;;3.60;2.27;;;9.40;99.90;;;;;;6119698;23;20381;-69
2023/02/03 06:49:19;;;;;;;4.70;2.13;;;9.40;99.90;;;;;;6120376;23;20670;-69
2023/02/03 06:51:48;;;;;;;6.40;2.67;;;9.50;99.90;;;;;;6119075;23;20405;-69
2023/02/03 06:54:15;;;;;;;3.80;2.40;;;9.40;99.90;;;;;;6122438;23;20409;-70
2023/02/03 06:56:42;;;;;;;3.50;2.53;;;9.40;99.90;;;;;;6120865;23;20386;-68
2023/02/03 06:59:09;;;;;;;5.70;3.40;;;9.50;99.90;;;;;;6119310;23;20546;-69
2023/02/03 07:01:36;;;;;;;3.87;2.90;;;9.50;99.90;;;;;;6118683;23;20435;-69
2023/02/03 07:04:03;;;;;;;25.83;4.10;;;9.50;99.90;;;;;;6117007;23;20923;-69
2023/02/03 07:06:32;;;;;;;13.00;3.77;;;9.40;99.90;;;;;;6120235;23;20496;-68
2023/02/03 07:09:03;;;;;;;5.83;2.97;;;9.30;99.90;;;;;;6120202;23;20413;-69
2023/02/03 07:11:30;;;;;;;9.20;2.97;;;9.30;99.90;;;;;;6117784;23;20431;-69
2023/02/03 07:13:58;;;;;;;5.03;2.87;;;9.40;99.90;;;;;;6119223;23;20421;-69
2023/02/03 07:16:26;;;;;;;2.20;1.73;;;9.30;99.90;;;;;;6118474;23;20499;-70
2023/02/03 07:18:53;;;;;;;6.10;3.50;;;9.40;99.90;;;;;;6118863;23;20446;-71
2023/02/03 07:21:20;;;;;;;3.70;2.60;;;9.30;99.90;;;;;;6119276;23;20465;-68
2023/02/03 07:23:48;;;;;;;4.23;3.83;;;9.30;99.90;;;;;;6119024;23;20394;-68
2023/02/03 07:26:17;;;;;;;4.70;3.10;;;9.30;99.90;;;;;;6120119;23;20482;-69
2023/02/03 07:28:44;;;;;;;4.73;4.23;;;9.30;99.90;;;;;;6119836;23;20415;-69
2023/02/03 07:31:11;;;;;;;6.30;3.43;;;9.40;99.90;;;;;;6118894;23;20438;-70
2023/02/03 07:33:39;;;;;;;6.20;3.33;;;9.30;99.90;;;;;;6118410;23;20458;-70
2023/02/03 07:36:07;;;;;;;4.83;3.83;;;9.40;99.90;;;;;;6119900;23;20754;-70
2023/02/03 07:38:34;;;;;;;3.87;3.43;;;9.40;99.90;;;;;;6120160;23;20489;-69
2023/02/03 07:41:01;;;;;;;8.23;3.23;;;9.50;99.90;;;;;;6120961;23;20450;-70
2023/02/03 07:43:29;;;;;;;12.53;4.10;;;9.50;99.90;;;;;;6119853;23;20481;-69
2023/02/03 07:45:56;;;;;;;5.73;2.90;;;9.40;99.90;;;;;;6066641;23;20429;-70
2023/02/03 07:48:24;;;;;;;7.10;3.60;;;9.50;99.90;;;;;;6123647;23;20444;-70
2023/02/03 07:50:51;;;;;;;4.30;3.37;;;9.50;99.90;;;;;;6123958;23;20427;-69
2023/02/03 07:53:19;;;;;;;9.00;3.23;;;9.50;99.90;;;;;;6123376;23;20494;-69
2023/02/03 07:55:45;;;;;;;2.57;1.93;;;9.60;99.90;;;;;;6120226;23;20396;-69
2023/02/03 07:58:13;;;;;;;9.00;3.30;;;9.60;99.90;;;;;;6121492;23;20492;-70
2023/02/03 08:00:46;;;;;;;10.00;2.30;;;9.60;99.90;;;;;;6120603;23;20754;-70
2023/02/03 08:03:13;;;;;;;6.93;4.43;;;9.60;99.90;;;;;;6120705;23;20418;-69
2023/02/03 08:05:40;;;;;;;6.10;2.40;;;9.60;99.90;;;;;;6117824;23;20473;-70
2023/02/03 08:08:07;;;;;;;3.13;1.53;;;9.50;99.90;;;;;;6120861;23;20396;-69
2023/02/03 08:10:34;;;;;;;6.23;2.77;;;9.50;99.90;;;;;;6121757;23;20465;-69
2023/02/03 08:13:01;;;;;;;4.07;2.07;;;9.60;99.90;;;;;;6120210;23;20482;-71
2023/02/03 08:15:28;;;;;;;2.87;2.17;;;9.50;99.90;;;;;;6119807;23;20501;-70
2023/02/03 08:17:59;;;;;;;4.07;1.97;;;9.60;99.90;;;;;;6120867;23;20877;-69
2023/02/03 08:20:26;;;;;;;3.93;3.57;;;9.60;99.90;;;;;;6120174;23;20447;-68
2023/02/03 08:22:53;;;;;;;2.10;1.73;;;9.60;99.90;;;;;;6120674;23;20452;-69
2023/02/03 08:25:23;;;;;;;2.00;1.53;;;9.60;99.90;;;;;;6120126;23;20498;-68
2023/02/03 08:27:50;;;;;;;4.83;2.57;;;9.50;99.90;;;;;;6121373;23;20386;-69
2023/02/03 08:30:18;;;;;;;2.97;1.70;;;9.60;99.90;;;;;;6118724;23;20407;-69
2023/02/03 08:32:45;;;;;;;3.20;2.30;;;9.60;99.90;;;;;;6119750;23;20951;-68
2023/02/03 08:35:16;;;;;;;3.90;2.07;;;9.50;99.90;;;;;;6116805;23;20978;-70
2023/02/03 08:37:43;;;;;;;10.53;3.30;;;9.60;99.90;;;;;;6120599;23;20403;-71
2023/02/03 08:40:12;;;;;;;2.87;1.90;;;9.60;99.90;;;;;;6121309;23;20447;-69
2023/02/03 08:42:39;;;;;;;4.33;2.57;;;9.60;99.90;;;;;;6123230;23;20435;-70
2023/02/03 08:45:07;;;;;;;6.97;2.93;;;9.70;99.90;;;;;;6124304;23;20435;-68
2023/02/03 08:47:35;;;;;;;3.77;3.17;;;9.70;99.90;;;;;;6117030;23;20820;-70
2023/02/03 08:50:03;;;;;;;3.37;2.40;;;9.70;99.90;;;;;;6120487;23;20411;-71
2023/02/03 08:52:31;;;;;;;7.80;2.90;;;9.70;99.90;;;;;;6121820;23;20507;-69
2023/02/03 08:55:03;;;;;;;3.20;2.40;;;9.70;99.90;;;;;;6117538;23;20645;-71
2023/02/03 08:57:32;;;;;;;2.27;1.80;;;9.70;99.90;;;;;;6121297;23;20772;-71
2023/02/03 08:59:59;;;;;;;7.40;2.77;;;9.70;99.90;;;;;;6118994;23;20456;-69
2023/02/03 09:02:26;;;;;;;3.07;2.47;;;9.70;99.90;;;;;;6121991;23;20501;-68
2023/02/03 09:04:53;;;;;;;5.60;3.10;;;9.70;99.90;;;;;;6120568;23;20421;-70
2023/02/03 09:07:20;;;;;;;4.43;2.20;;;9.70;99.90;;;;;;6121624;23;20411;-70
2023/02/03 09:09:48;;;;;;;2.87;2.03;;;9.80;99.90;;;;;;6120541;23;20449;-70
2023/02/03 09:12:16;;;;;;;3.90;2.50;;;9.80;99.90;;;;;;6119636;23;20427;-69
2023/02/03 09:14:43;;;;;;;1.90;1.73;;;9.80;99.90;;;;;;6119173;23;20851;-70
2023/02/03 09:17:10;;;;;;;3.97;2.33;;;9.80;99.90;;;;;;6120978;23;20457;-70
2023/02/03 09:19:38;;;;;;;5.73;2.27;;;9.70;99.90;;;;;;6121005;23;20417;-72
2023/02/03 09:22:05;;;;;;;2.90;2.50;;;9.70;99.90;;;;;;6123392;23;20439;-69
2023/02/03 09:24:32;;;;;;;2.17;1.43;;;9.80;99.90;;;;;;6118412;23;20516;-69
2023/02/03 09:27:01;;;;;;;2.93;2.23;;;9.90;99.90;;;;;;6121493;23;20793;-68
2023/02/03 09:29:28;;;;;;;6.43;2.83;;;9.90;99.90;;;;;;6118407;23;21308;-71
2023/02/03 09:31:55;;;;;;;3.53;2.07;;;9.90;99.90;;;;;;6117591;23;20687;-69
2023/02/03 09:34:22;;;;;;;2.67;2.17;;;9.90;99.90;;;;;;6118081;23;20425;-70
2023/02/03 09:36:50;;;;;;;3.77;2.07;;;9.80;99.90;;;;;;6119943;23;20435;-70
2023/02/03 09:39:17;;;;;;;2.70;2.13;;;9.80;99.90;;;;;;6120442;23;20450;-69
2023/02/03 09:42:28;;;;;;;3.30;2.30;;;9.90;99.90;;;;;;6120695;23;20443;-70
2023/02/03 09:45:07;;;;;;;6.17;2.70;;;9.90;99.90;;;;;;6123422;23;20405;-71
2023/02/03 09:47:37;;;;;;;5.40;2.73;;;9.90;99.90;;;;;;6121490;23;20785;-69
2023/02/03 09:50:07;;;;;;;5.50;3.80;;;9.90;99.90;;;;;;6119665;23;20411;-71
2023/02/03 09:52:38;;;;;;;2.73;1.80;;;10.00;99.90;;;;;;6118056;23;20500;-71
2023/02/03 09:55:11;;;;;;;6.33;3.60;;;10.00;99.90;;;;;;6119671;23;20395;-71
2023/02/03 09:57:50;;;;;;;1.80;1.70;;;10.00;99.90;;;;;;6121141;23;20370;-71
2023/02/03 10:00:21;;;;;;;8.33;2.30;;;10.00;99.90;;;;;;6119097;23;20501;-70
2023/02/03 10:02:57;;;;;;;4.17;3.27;;;10.00;99.90;;;;;;6119490;23;20429;-69
2023/02/03 10:05:36;;;;;;;4.60;2.70;;;10.00;99.90;;;;;;6121276;23;20399;-71
2023/02/03 10:08:10;;;;;;;4.93;1.77;;;10.00;99.90;;;;;;6121160;23;20449;-70
2023/02/03 10:10:41;;;;;;;4.10;2.70;;;10.00;99.90;;;;;;6117042;23;20419;-71
2023/02/03 10:13:24;;;;;;;6.30;2.80;;;10.00;99.90;;;;;;6121594;23;20392;-69
2023/02/03 10:16:10;;;;;;;6.57;3.07;;;10.10;99.90;;;;;;6119601;23;20442;-70
2023/02/03 10:18:41;;;;;;;3.87;2.50;;;10.10;99.90;;;;;;6120465;23;20486;-70
2023/02/03 10:21:16;;;;;;;3.00;2.60;;;10.10;99.90;;;;;;6117693;23;20449;-70
2023/02/03 10:23:45;;;;;;;4.47;2.93;;;10.00;99.90;;;;;;6119924;23;20426;-69
2023/02/03 10:26:17;;;;;;;3.67;2.87;;;10.00;99.90;;;;;;6120720;23;20451;-70
2023/02/03 10:28:51;;;;;;;3.10;2.63;;;10.00;99.90;;;;;;6118480;23;20374;-70
2023/02/03 10:31:21;;;;;;;4.03;2.90;;;10.00;99.90;;;;;;6116706;23;20429;-69
2023/02/03 10:34:04;;;;;;;7.40;3.60;;;10.00;99.90;;;;;;6120208;23;20455;-70
2023/02/03 10:36:46;;;;;;;3.97;3.10;;;10.10;99.90;;;;;;6119293;23;20366;-69
2023/02/03 10:39:24;;;;;;;8.13;2.60;;;10.10;99.90;;;;;;6120048;23;20880;-71
2023/02/03 10:41:51;;;;;;;4.43;3.10;;;10.00;99.90;;;;;;6117632;23;20845;-69
2023/02/03 10:44:22;;;;;;;5.73;2.67;;;10.10;99.90;;;;;;6120110;23;20386;-70
2023/02/03 10:46:49;;;;;;;5.63;3.40;;;10.20;99.90;;;;;;6118721;23;20931;-69
2023/02/03 10:49:17;;;;;;;2.93;2.53;;;10.10;99.90;;;;;;6120708;23;20418;-70
2023/02/03 10:51:49;;;;;;;4.23;2.60;;;10.20;99.90;;;;;;6118157;23;21037;-70
2023/02/03 10:54:31;;;;;;;7.30;2.70;;;10.20;99.90;;;;;;6092953;23;21053;-70
2023/02/03 10:57:03;;;;;;;3.50;2.87;;;10.10;99.90;;;;;;6119271;23;20413;-70
2023/02/03 10:59:35;;;;;;;5.23;2.70;;;10.10;99.90;;;;;;6116551;23;20391;-73
2023/02/03 11:02:08;;;;;;;7.80;2.73;;;10.10;99.90;;;;;;6120109;23;20514;-71
2023/02/03 11:04:36;;;;;;;7.23;3.40;;;10.20;99.90;;;;;;6121079;23;20391;-70
2023/02/03 11:07:05;;;;;;;9.30;3.50;;;10.20;99.90;;;;;;6119383;23;20406;-69
2023/02/03 11:09:35;;;;;;;2.97;2.60;;;10.30;99.90;;;;;;6117725;23;20442;-70
2023/02/03 11:12:13;;;;;;;4.50;2.60;;;10.30;99.90;;;;;;6119861;23;20427;-70
2023/02/03 11:14:44;;;;;;;5.33;4.23;;;10.30;99.90;;;;;;6120913;23;20433;-70
2023/02/03 11:17:17;;;;;;;3.53;2.63;;;10.30;99.90;;;;;;6118792;23;20397;-68
2023/02/03 11:19:46;;;;;;;3.10;2.23;;;10.20;99.90;;;;;;6120468;23;20838;-70
2023/02/03 11:22:14;;;;;;;8.40;3.50;;;10.10;99.90;;;;;;6122248;23;20446;-70
2023/02/03 11:24:44;;;;;;;5.83;2.20;;;10.20;99.90;;;;;;6120127;23;20415;-70
2023/02/03 11:27:15;;;;;;;7.43;2.30;;;10.10;99.90;;;;;;6120735;23;20442;-70
2023/02/03 11:29:46;;;;;;;10.70;1.97;;;10.20;99.90;;;;;;6123871;23;20749;-70
2023/02/03 11:32:20;;;;;;;3.13;2.37;;;10.20;99.90;;;;;;6122631;23;20489;-70
2023/02/03 11:34:54;;;;;;;8.40;3.40;;;10.20;99.90;;;;;;6115238;23;20918;-69
2023/02/03 11:37:31;;;;;;;3.73;2.30;;;10.20;99.90;;;;;;6119969;23;20427;-70
2023/02/03 11:40:21;;;;;;;5.13;3.20;;;10.20;99.90;;;;;;6122389;23;20491;-70
2023/02/03 11:43:00;;;;;;;5.63;2.77;;;10.10;99.90;;;;;;6123388;23;20430;-70
2023/02/03 11:45:30;;;;;;;4.90;2.43;;;10.10;99.90;;;;;;6120661;23;20395;-70
2023/02/03 11:48:15;;;;;;;6.20;3.10;;;10.10;99.90;;;;;;6120470;23;20450;-70
2023/02/03 11:50:47;;;;;;;3.30;2.70;;;10.00;99.90;;;;;;6121007;23;20465;-70
2023/02/03 11:53:25;;;;;;;10.90;2.93;;;10.00;99.90;;;;;;6122488;23;20485;-69
2023/02/03 11:56:05;;;;;;;2.80;2.10;;;10.00;99.90;;;;;;6119047;23;20388;-69
2023/02/03 11:59:03;;;;;;;4.13;2.73;;;10.00;99.90;;;;;;6120275;23;20458;-69
2023/02/03 12:02:05;;;;;;;3.27;2.10;;;10.00;99.90;;;;;;6117264;23;20455;-70
2023/02/03 12:04:59;;;;;;;3.57;1.90;;;10.00;99.90;;;;;;6070802;23;20410;-70
2023/02/03 12:07:38;;;;;;;3.70;2.33;;;10.00;99.90;;;;;;6124676;23;20399;-69
2023/02/03 12:10:21;;;;;;;2.30;2.10;;;10.10;99.90;;;;;;6120184;23;20446;-69
2023/02/03 12:12:53;;;;;;;6.07;3.63;;;10.10;99.90;;;;;;6119834;23;20438;-70
2023/02/03 12:15:32;;;;;;;4.47;2.40;;;10.10;99.90;;;;;;6121123;23;20512;-70
2023/02/03 12:18:10;;;;;;;3.10;2.07;;;10.20;99.90;;;;;;6119734;23;20366;-69
2023/02/03 12:20:48;;;;;;;2.90;2.70;;;10.20;99.90;;;;;;6121893;23;20419;-70
2023/02/03 12:23:32;;;;;;;6.03;2.67;;;10.20;99.90;;;;;;6120787;23;20373;-70
2023/02/03 12:26:13;;;;;;;3.73;2.20;;;10.20;99.90;;;;;;6121739;23;20438;-69
2023/02/03 12:28:54;;;;;;;2.10;1.60;;;10.30;99.90;;;;;;6116725;23;20446;-71
2023/02/03 12:31:29;;;;;;;5.10;3.30;;;10.30;99.90;;;;;;6121906;23;20750;-69
2023/02/03 12:34:13;;;;;;;1.77;1.57;;;10.20;99.90;;;;;;6120912;23;21070;-68
2023/02/03 12:36:42;;;;;;;3.93;1.80;;;10.30;99.90;;;;;;6120191;23;20452;-69
2023/02/03 12:39:19;;;;;;;3.37;2.20;;;10.40;99.90;;;;;;6121099;23;21195;-70
2023/02/03 12:41:52;;;;;;;4.63;1.93;;;10.40;99.90;;;;;;6120225;23;20476;-70
2023/02/03 12:44:24;;;;;;;2.10;1.90;;;10.50;99.90;;;;;;6121389;23;20456;-70
2023/02/03 12:46:57;;;;;;;2.63;1.00;;;10.50;99.90;;;;;;6119341;23;20447;-70
2023/02/03 12:49:39;;;;;;;4.57;1.87;;;10.50;99.90;;;;;;6124002;23;20785;-71
2023/02/03 12:52:16;;;;;;;3.40;2.10;;;10.50;99.90;;;;;;6121456;23;20442;-70
2023/02/03 12:54:49;;;;;;;3.60;3.30;;;10.50;99.90;;;;;;6119099;23;20962;-69
2023/02/03 12:57:23;;;;;;;5.43;2.63;;;10.60;99.90;;;;;;6119998;23;20396;-71
2023/02/03 13:00:18;;;;;;;1.93;1.73;;;10.60;99.90;;;;;;6120449;23;20398;-70
2023/02/03 13:02:54;;;;;;;2.17;1.40;;;10.50;99.90;;;;;;6120741;23;20971;-70
2023/02/03 13:05:29;;;;;;;3.83;2.50;;;10.50;99.90;;;;;;6114005;23;20413;-69
2023/02/03 13:08:03;;;;;;;3.77;2.00;;;10.50;99.90;;;;;;6120666;23;20465;-70
2023/02/03 13:10:37;;;;;;;2.53;2.30;;;10.40;99.90;;;;;;6119355;23;20394;-69
2023/02/03 13:13:08;;;;;;;2.63;1.93;;;10.40;99.90;;;;;;6119725;23;21253;-70
2023/02/03 13:15:39;;;;;;;9.37;2.77;;;10.40;99.90;;;;;;6120836;23;20418;-70